Time;durP1;ratioP1;P1;durP2;ratioP2;P2;SDS_P1;SDS_P2;PMS_P1;PMS_P2;Temp;Humidity;BMP_temperature;BMP_pressure;BME280_temperature;BME280_humidity;BME280_pressure;Samples;Min_cycle;Max_cycle;Signal;HPM_P1;HPM_P2
2021/10/16 00:01:32;;;;;;;18.90;10.25;;;;;;;13.88;100.00;96428.34;5025916;28;20053;-61
2021/10/16 00:03:59;;;;;;;23.17;11.20;;;;;;;13.92;100.00;96427.09;5025504;28;20566;-62
2021/10/16 00:06:25;;;;;;;28.23;11.02;;;;;;;13.89;100.00;96432.69;5025412;28;20076;-61
2021/10/16 00:08:52;;;;;;;25.13;11.93;;;;;;;14.00;100.00;96450.13;5024333;28;20061;-60
2021/10/16 00:11:19;;;;;;;29.42;12.77;;;;;;;13.51;100.00;96360.13;5023276;28;20057;-63
2021/10/16 00:13:45;;;;;;;24.92;12.05;;;;;;;14.09;100.00;96436.53;5024943;28;20053;-61
2021/10/16 00:16:12;;;;;;;25.30;11.95;;;;;;;13.35;100.00;96320.09;5020478;28;20544;-64
2021/10/16 00:18:39;;;;;;;24.70;12.13;;;;;;;14.04;100.00;96437.75;5025403;28;20057;-61
2021/10/16 00:21:06;;;;;;;26.73;12.00;;;;;;;14.05;100.00;96431.00;5023412;28;20059;-61
2021/10/16 00:23:33;;;;;;;24.10;12.10;;;;;;;14.12;100.00;96430.16;5024544;28;20056;-60
2021/10/16 00:26:00;;;;;;;23.88;12.02;;;;;;;14.15;100.00;96429.31;5024479;28;20041;-64
2021/10/16 00:28:26;;;;;;;23.77;11.63;;;;;;;14.09;100.00;96430.97;5024848;28;20065;-60
2021/10/16 00:30:53;;;;;;;26.95;12.75;;;;;;;14.09;100.00;96417.03;5024579;28;20517;-63
2021/10/16 00:33:20;;;;;;;25.08;11.05;;;;;;;14.07;100.00;96431.38;5023026;28;20057;-61
2021/10/16 00:35:47;;;;;;;24.45;12.48;;;;;;;14.08;100.00;96416.28;5024098;28;20049;-61
2021/10/16 00:38:13;;;;;;;23.90;10.82;;;;;;;14.07;100.00;96416.69;5024429;28;20037;-61
2021/10/16 00:40:40;;;;;;;24.35;11.15;;;;;;;14.11;100.00;96415.44;5024444;28;20526;-61
2021/10/16 00:43:07;;;;;;;20.05;10.45;;;;;;;14.11;100.00;96418.22;5022589;28;20516;-63
2021/10/16 00:45:34;;;;;;;17.52;9.65;;;;;;;13.74;100.00;96358.81;5024131;28;20513;-61
2021/10/16 00:48:00;;;;;;;20.77;9.25;;;;;;;14.05;100.00;96410.72;5024522;28;20073;-61
2021/10/16 00:50:28;;;;;;;15.85;9.10;;;;;;;13.52;100.00;96313.63;5024046;28;20045;-63
2021/10/16 00:52:54;;;;;;;16.05;9.30;;;;;;;14.04;100.00;96396.00;5024285;28;20507;-60
2021/10/16 00:55:23;;;;;;;18.10;9.60;;;;;;;14.02;100.00;96403.19;5022888;28;20045;-61
2021/10/16 00:57:50;;;;;;;15.20;9.00;;;;;;;13.76;100.00;96361.97;5024291;28;20049;-61
2021/10/16 01:00:17;;;;;;;18.48;9.48;;;;;;;14.03;100.00;96399.19;5023888;28;20535;-61
2021/10/16 01:02:44;;;;;;;20.60;9.10;;;;;;;14.03;100.00;96388.03;5023795;28;20524;-60
2021/10/16 01:05:12;;;;;;;16.15;8.48;;;;;;;13.75;100.00;96349.25;5022385;28;20056;-61
2021/10/16 01:07:40;;;;;;;13.65;7.70;;;;;;;14.01;100.00;96390.44;5022423;28;20059;-60
2021/10/16 01:10:09;;;;;;;17.52;8.13;;;;;;;13.99;100.00;96395.63;5021574;28;20088;-61
2021/10/16 01:12:37;;;;;;;16.15;8.88;;;;;;;13.73;100.00;96354.44;5024557;28;20053;-60
2021/10/16 01:15:07;;;;;;;18.25;9.70;;;;;;;13.95;100.00;96392.06;5023968;28;20057;-61
2021/10/16 01:17:36;;;;;;;19.10;9.13;;;;;;;13.89;100.00;96365.88;5022865;28;20392;-61
2021/10/16 01:20:10;;;;;;;17.70;9.55;;;;;;;14.00;100.00;96380.50;5023794;28;20500;-61
2021/10/16 01:22:38;;;;;;;17.38;8.82;;;;;;;13.72;100.00;96350.09;5023507;28;20053;-60
2021/10/16 01:25:09;;;;;;;18.33;9.32;;;;;;;14.00;100.00;96377.72;5023708;28;20075;-61
2021/10/16 01:27:37;;;;;;;15.98;8.32;;;;;;;13.88;100.00;96359.50;5023467;28;20050;-63
2021/10/16 01:30:06;;;;;;;15.50;8.68;;;;;;;14.01;100.00;96374.53;5023729;28;20045;-60
2021/10/16 01:32:37;;;;;;;20.08;9.32;;;;;;;13.64;100.00;96327.84;5024026;28;20054;-61
2021/10/16 01:35:05;;;;;;;17.90;9.45;;;;;;;13.79;100.00;96372.28;5023677;28;20435;-61
2021/10/16 01:37:32;;;;;;;15.40;9.63;;;;;;;13.32;100.00;96305.00;5022184;28;20436;-61
2021/10/16 01:39:58;;;;;;;19.55;10.55;;;;;;;13.83;100.00;96376.63;5023640;28;20497;-61
2021/10/16 01:42:26;;;;;;;19.52;9.38;;;;;;;13.80;100.00;96383.00;5023473;28;20071;-62
2021/10/16 01:44:52;;;;;;;23.02;10.43;;;;;;;13.90;100.00;96384.16;5022129;28;20053;-62
2021/10/16 01:47:19;;;;;;;17.33;8.95;;;;;;;13.69;100.00;96335.78;5023401;28;20080;-61
2021/10/16 01:49:46;;;;;;;16.58;8.30;;;;;;;14.05;100.00;96374.50;5023461;28;20416;-61
2021/10/16 01:52:12;;;;;;;21.83;9.93;;;;;;;13.96;100.00;96361.03;5023487;28;20061;-61
2021/10/16 01:54:39;;;;;;;18.00;9.63;;;;;;;13.96;100.00;96365.84;5023606;28;20050;-61
2021/10/16 01:57:06;;;;;;;18.77;9.70;;;;;;;13.66;100.00;96302.41;5023308;28;20060;-64
2021/10/16 01:59:34;;;;;;;19.10;8.90;;;;;;;14.05;100.00;96363.38;5022097;28;20080;-61
2021/10/16 02:02:06;;;;;;;18.17;9.25;;;;;;;13.69;100.00;96296.81;5022132;28;20053;-61
2021/10/16 02:04:33;;;;;;;15.95;8.63;;;;;;;13.54;100.00;96278.63;5021856;28;20062;-60
2021/10/16 02:06:59;;;;;;;17.65;9.15;;;;;;;14.16;100.00;96361.28;5021693;28;20085;-62
2021/10/16 02:09:26;;;;;;;19.90;8.93;;;;;;;14.05;100.00;96352.22;5023052;28;20536;-61
2021/10/16 02:11:53;;;;;;;18.27;9.73;;;;;;;14.24;100.00;96354.47;5022296;28;20057;-62
2021/10/16 02:14:19;;;;;;;16.13;9.13;;;;;;;14.32;100.00;96353.25;5022993;28;20054;-61
2021/10/16 02:16:46;;;;;;;19.63;9.68;;;;;;;14.33;100.00;96354.81;5023086;28;20642;-61
2021/10/16 02:19:17;;;;;;;24.83;10.73;;;;;;;14.31;100.00;96343.28;5023207;28;20053;-61
2021/10/16 02:21:44;;;;;;;22.73;10.35;;;;;;;14.28;100.00;96344.09;5025441;28;20488;-64
2021/10/16 02:24:11;;;;;;;19.17;10.68;;;;;;;14.24;100.00;96354.47;5026525;28;20045;-61
2021/10/16 02:26:37;;;;;;;23.27;11.68;;;;;;;13.86;100.00;96299.88;5026581;28;20064;-63
2021/10/16 02:29:04;;;;;;;22.48;11.02;;;;;;;14.25;100.00;96344.94;5026839;28;20065;-61
2021/10/16 02:31:31;;;;;;;21.08;10.13;;;;;;;13.80;100.00;96277.22;5026436;28;20068;-64
2021/10/16 02:33:58;;;;;;;20.52;10.48;;;;;;;13.70;100.00;96259.41;5026656;28;20572;-61
2021/10/16 02:36:24;;;;;;;18.70;10.82;;;;;;;14.19;100.00;96346.53;5025114;28;20049;-61
2021/10/16 02:38:51;;;;;;;24.50;12.00;;;;;;;13.85;100.00;96292.72;5026477;28;20060;-62
2021/10/16 02:41:18;;;;;;;23.08;11.43;;;;;;;14.04;100.00;96317.22;5026548;28;20050;-61
2021/10/16 02:43:45;;;;;;;23.63;11.52;;;;;;;14.00;100.00;96310.91;5024982;28;20056;-62
2021/10/16 02:46:11;;;;;;;26.10;11.20;;;;;;;14.25;100.00;96342.16;5026476;28;20056;-62
2021/10/16 02:48:38;;;;;;;22.75;12.85;;;;;;;14.07;100.00;96330.34;5026728;28;20164;-61
2021/10/16 02:51:05;;;;;;;19.33;11.07;;;;;;;14.21;100.00;96360.88;5026482;28;20054;-62
2021/10/16 02:53:34;;;;;;;16.52;9.38;;;;;;;14.23;100.00;96364.00;5025007;28;20056;-64
2021/10/16 02:56:01;;;;;;;22.52;10.60;;;;;;;14.23;100.00;96355.66;5026369;28;20508;-63
2021/10/16 02:58:27;;;;;;;19.90;9.60;;;;;;;14.23;100.00;96347.28;5026308;28;20084;-61
2021/10/16 03:00:54;;;;;;;16.40;9.38;;;;;;;14.00;100.00;96322.03;5026652;28;20072;-64
2021/10/16 03:03:21;;;;;;;15.20;9.75;;;;;;;13.82;100.00;96315.78;5026385;28;20134;-61
2021/10/16 03:05:48;;;;;;;15.77;9.88;;;;;;;14.26;100.00;96352.06;5010623;28;20088;-63
2021/10/16 03:08:14;;;;;;;14.48;9.75;;;;;;;13.88;100.00;96308.63;5026268;28;20529;-61
2021/10/16 03:10:43;;;;;;;15.50;9.82;;;;;;;14.16;100.00;96364.09;5024336;28;20053;-62
2021/10/16 03:13:10;;;;;;;14.05;9.32;;;;;;;14.24;100.00;96368.41;5024428;28;20695;-61
2021/10/16 03:15:36;;;;;;;15.73;9.82;;;;;;;13.91;100.00;96313.38;5025918;28;20049;-61
2021/10/16 03:18:03;;;;;;;22.73;11.13;;;;;;;14.09;100.00;96350.19;5024739;28;20058;-62
2021/10/16 03:20:30;;;;;;;18.67;10.50;;;;;;;14.17;100.00;96362.88;5024309;28;20057;-62
2021/10/16 03:22:56;;;;;;;21.90;10.10;;;;;;;14.24;100.00;96360.03;5025185;28;20436;-63
2021/10/16 03:25:23;;;;;;;18.40;10.38;;;;;;;14.17;100.00;96343.38;5022808;28;20491;-61
2021/10/16 03:27:50;;;;;;;12.10;8.07;;;;;;;14.06;100.00;96342.66;5025430;28;20512;-62
2021/10/16 03:30:17;;;;;;;16.58;8.50;;;;;;;13.75;100.00;96285.25;5025470;28;20060;-61
2021/10/16 03:32:43;;;;;;;16.70;9.82;;;;;;;13.78;100.00;96317.81;5024998;28;20093;-61
2021/10/16 03:35:10;;;;;;;13.60;8.27;;;;;;;14.01;100.00;96359.81;5025621;28;20148;-63
2021/10/16 03:37:37;;;;;;;17.60;10.60;;;;;;;14.05;100.00;96357.81;5024115;28;20508;-61
2021/10/16 03:40:04;;;;;;;15.57;10.70;;;;;;;14.06;100.00;96348.22;5025643;28;20049;-63
2021/10/16 03:42:31;;;;;;;18.05;9.95;;;;;;;14.13;100.00;96350.97;5024030;28;20444;-62
2021/10/16 03:44:57;;;;;;;15.32;8.77;;;;;;;14.09;100.00;96347.41;5024698;28;20053;-61
2021/10/16 03:47:24;;;;;;;18.40;10.57;;;;;;;14.00;100.00;96341.53;5025128;28;20451;-61
2021/10/16 03:49:51;;;;;;;14.05;8.65;;;;;;;13.97;100.00;96336.78;5025021;28;20053;-62
2021/10/16 03:52:18;;;;;;;19.10;10.52;;;;;;;13.94;100.00;96323.69;5025164;28;20053;-62
2021/10/16 03:54:45;;;;;;;22.70;13.23;;;;;;;13.49;100.00;96259.59;5025202;28;20056;-60
2021/10/16 03:57:11;;;;;;;16.88;10.88;;;;;;;14.01;100.00;96335.53;5024854;28;20059;-62
2021/10/16 03:59:42;;;;;;;20.02;11.20;;;;;;;13.99;100.00;96349.06;5023580;28;20053;-60
2021/10/16 04:02:09;;;;;;;18.85;10.30;;;;;;;13.37;100.00;96246.16;5024981;28;20127;-61
2021/10/16 04:04:36;;;;;;;16.90;9.55;;;;;;;14.05;100.00;96341.09;5024179;28;20053;-62
2021/10/16 04:07:03;;;;;;;17.17;10.05;;;;;;;14.04;100.00;96339.50;5025073;28;20869;-61
2021/10/16 04:09:31;;;;;;;19.48;12.65;;;;;;;14.14;100.00;96338.63;5024997;28;20445;-63
2021/10/16 04:11:58;;;;;;;17.70;9.65;;;;;;;14.06;100.00;96325.97;5024653;28;20057;-61
2021/10/16 04:14:25;;;;;;;17.55;9.30;;;;;;;14.17;100.00;96344.19;5024615;28;20053;-63
2021/10/16 04:16:51;;;;;;;22.92;9.88;;;;;;;13.88;100.00;96280.78;5024591;28;20057;-63
2021/10/16 04:19:18;;;;;;;16.73;10.68;;;;;;;14.24;100.00;96337.75;5024691;28;20483;-61
2021/10/16 04:21:45;;;;;;;15.77;8.80;;;;;;;14.35;100.00;96349.63;5023105;28;20049;-61
2021/10/16 04:24:11;;;;;;;23.63;12.32;;;;;;;14.01;100.00;96291.00;5025282;28;20080;-61
2021/10/16 04:26:38;;;;;;;23.02;12.05;;;;;;;14.37;100.00;96338.88;5024472;28;20079;-61
2021/10/16 04:29:05;;;;;;;29.90;13.65;;;;;;;14.22;100.00;96313.09;5024654;28;20063;-63
2021/10/16 04:31:32;;;;;;;21.83;11.60;;;;;;;14.32;100.00;96344.88;5022889;28;20455;-61
2021/10/16 04:33:59;;;;;;;24.80;10.80;;;;;;;14.20;100.00;96297.97;5024672;28;20099;-62
2021/10/16 04:36:26;;;;;;;30.67;13.70;;;;;;;14.35;100.00;96321.75;5024638;28;20123;-62
2021/10/16 04:38:54;;;;;;;64.20;26.08;;;;;;;14.40;100.00;96329.69;5022909;28;20587;-61
2021/10/16 04:41:22;;;;;;;59.70;24.08;;;;;;;14.36;100.00;96334.47;5022741;28;20045;-61
2021/10/16 04:43:49;;;;;;;22.23;9.88;;;;;;;13.51;100.00;96237.69;5023201;28;20057;-63
2021/10/16 04:46:16;;;;;;;17.52;9.23;;;;;;;13.77;100.00;96310.69;5023933;28;20417;-61
2021/10/16 04:48:44;;;;;;;19.05;9.75;;;;;;;13.86;100.00;96333.28;5023981;28;20057;-61
2021/10/16 04:51:12;;;;;;;14.82;8.50;;;;;;;13.78;100.00;96338.13;5024165;28;20049;-62
2021/10/16 04:53:39;;;;;;;21.45;9.48;;;;;;;13.93;100.00;96342.38;5021563;28;20047;-61
2021/10/16 04:56:06;;;;;;;23.58;13.63;;;;;;;14.03;100.00;96351.84;5023636;28;20130;-62
2021/10/16 04:58:33;;;;;;;22.92;13.07;;;;;;;14.07;100.00;96352.63;5022720;28;20511;-61
2021/10/16 05:01:00;;;;;;;17.55;10.82;;;;;;;13.99;100.00;96353.88;5024273;28;20050;-61
2021/10/16 05:03:27;;;;;;;15.35;10.23;;;;;;;14.11;100.00;96372.88;5024347;28;20175;-62
2021/10/16 05:05:54;;;;;;;12.68;7.93;;;;;;;14.06;100.00;96368.53;5023884;28;20504;-62
2021/10/16 05:08:21;;;;;;;16.67;10.10;;;;;;;14.03;100.00;96372.13;5022598;28;20053;-61
2021/10/16 05:10:49;;;;;;;19.77;9.93;;;;;;;14.07;100.00;96377.69;5006811;28;20492;-62
2021/10/16 05:13:16;;;;;;;14.60;9.52;;;;;;;13.68;100.00;96328.63;5004289;28;20054;-62
2021/10/16 05:15:43;;;;;;;10.13;6.30;;;;;;;14.00;100.00;96389.66;5002816;28;20060;-61
2021/10/16 05:18:10;;;;;;;10.57;6.45;;;;;;;13.93;100.00;96391.69;5003114;28;20050;-62
2021/10/16 05:20:37;;;;;;;11.75;7.47;;;;;;;13.86;100.00;96384.19;5002856;28;20056;-60
2021/10/16 05:23:04;;;;;;;15.18;6.85;;;;;;;13.75;100.00;96388.22;5003935;28;20060;-63
2021/10/16 05:25:31;;;;;;;9.43;5.28;;;;;;;13.58;100.00;96387.91;5004182;28;20254;-62
2021/10/16 05:27:57;;;;;;;8.65;4.85;;;;;;;13.46;100.00;96393.97;5004065;28;20049;-62
2021/10/16 05:30:24;;;;;;;11.13;4.25;;;;;;;13.37;100.00;96390.03;5003809;28;20068;-62
2021/10/16 05:32:51;;;;;;;8.52;5.30;;;;;;;13.36;100.00;96403.13;5003923;28;20545;-59
2021/10/16 05:35:18;;;;;;;6.07;3.83;;;;;;;13.30;100.00;96407.53;5003961;28;20062;-59
2021/10/16 05:37:45;;;;;;;7.45;4.18;;;;;;;13.14;100.00;96390.50;5003078;28;20046;-62
2021/10/16 05:40:12;;;;;;;5.70;3.55;;;;;;;13.21;100.00;96421.09;5003998;28;20504;-61
2021/10/16 05:42:38;;;;;;;4.43;2.63;;;;;;;13.21;100.00;96432.22;5003736;28;20050;-59
2021/10/16 05:45:06;;;;;;;4.10;2.85;;;;;;;12.57;100.00;96377.91;5002160;28;20057;-60
2021/10/16 05:47:32;;;;;;;5.57;2.95;;;;;;;12.98;100.00;96429.03;5003946;28;20057;-58
2021/10/16 05:49:59;;;;;;;8.52;3.72;;;;;;;13.06;100.00;96424.28;5002216;28;20575;-61
2021/10/16 05:52:26;;;;;;;3.65;2.78;;;;;;;12.87;100.00;96450.50;5003674;28;20058;-59
2021/10/16 05:54:52;;;;;;;4.78;2.58;;;;;;;12.74;100.00;96429.88;5005119;28;20049;-63
2021/10/16 05:57:19;;;;;;;3.72;2.28;;;;;;;12.62;100.00;96438.63;5007956;28;20045;-59
2021/10/16 05:59:46;;;;;;;4.45;2.47;;;;;;;12.49;100.00;96434.66;5007938;28;20140;-62
2021/10/16 06:02:13;;;;;;;7.13;4.22;;;;;;;12.32;100.00;96381.91;5007791;28;20060;-60
2021/10/16 06:04:39;;;;;;;6.93;4.13;;;;;;;12.70;100.00;96445.78;5007338;28;20073;-61
2021/10/16 06:07:06;;;;;;;11.48;5.93;;;;;;;12.86;100.00;96459.25;5006316;28;20067;-59
2021/10/16 06:09:33;;;;;;;17.08;7.68;;;;;;;12.86;100.00;96448.94;5013106;28;20464;-59
2021/10/16 06:11:59;;;;;;;12.52;6.90;;;;;;;12.95;100.00;96463.22;5026685;28;20565;-60
2021/10/16 06:14:26;;;;;;;20.38;9.90;;;;;;;12.95;100.00;96449.31;5025668;28;20061;-59
2021/10/16 06:16:53;;;;;;;7.18;4.28;;;;;;;12.77;100.00;96434.63;5025594;28;20057;-61
2021/10/16 06:19:20;;;;;;;8.52;5.50;;;;;;;13.15;100.00;96472.72;5026680;28;20443;-60
2021/10/16 06:21:46;;;;;;;12.20;6.93;;;;;;;13.14;100.00;96465.59;5026464;28;20053;-59
2021/10/16 06:24:13;;;;;;;10.20;6.63;;;;;;;13.24;100.00;96464.78;5021216;28;20045;-62
2021/10/16 06:26:40;;;;;;;9.32;4.75;;;;;;;13.13;100.00;96447.31;5026318;28;20056;-59
2021/10/16 06:29:07;;;;;;;9.30;4.97;;;;;;;13.40;100.00;96473.44;5026160;28;20068;-62
2021/10/16 06:31:34;;;;;;;9.98;5.43;;;;;;;13.40;100.00;96479.00;5026282;28;20583;-63
2021/10/16 06:34:01;;;;;;;7.70;4.93;;;;;;;12.93;100.00;96428.66;5026194;28;20063;-60
2021/10/16 06:36:28;;;;;;;8.98;6.90;;;;;;;13.34;100.00;96472.28;5026670;28;20508;-60
2021/10/16 06:38:54;;;;;;;14.40;9.25;;;;;;;13.06;100.00;96400.06;5026868;28;20160;-62
2021/10/16 06:41:21;;;;;;;6.95;4.32;;;;;;;13.51;100.00;96479.75;5027014;28;20049;-61
2021/10/16 06:43:48;;;;;;;5.82;4.60;;;;;;;12.88;100.00;96363.13;5025832;28;20137;-64
2021/10/16 06:46:15;;;;;;;8.68;5.78;;;;;;;13.76;100.00;96470.53;5026237;28;20092;-62
2021/10/16 06:48:42;;;;;;;15.90;8.32;;;;;;;13.77;100.00;96452.66;5025937;28;20064;-63
2021/10/16 06:51:09;;;;;;;14.32;8.25;;;;;;;13.96;100.00;96477.97;5026192;28;20865;-63
2021/10/16 06:53:38;;;;;;;15.82;9.88;;;;;;;13.48;100.00;96427.72;5023767;28;20059;-62
2021/10/16 06:56:04;;;;;;;14.68;9.43;;;;;;;13.66;100.00;96442.34;5025513;28;20053;-60
2021/10/16 06:58:31;;;;;;;14.43;8.05;;;;;;;13.37;100.00;96390.78;5025556;28;20092;-62
2021/10/16 07:00:58;;;;;;;9.23;6.00;;;;;;;13.89;100.00;96480.03;5025301;28;20068;-62
2021/10/16 07:03:29;;;;;;;9.20;5.72;;;;;;;13.18;100.00;96360.69;5023529;28;20045;-60
2021/10/16 07:05:57;;;;;;;8.95;5.32;;;;;;;14.04;100.00;96487.09;5023907;28;20060;-60
2021/10/16 07:08:30;;;;;;;9.77;5.53;;;;;;;14.10;100.00;96482.69;5025023;28;20042;-62
2021/10/16 07:10:57;;;;;;;7.55;5.35;;;;;;;14.10;100.00;96493.84;5024770;28;20061;-59
2021/10/16 07:13:25;;;;;;;9.45;5.20;;;;;;;14.17;100.00;96488.22;5024147;28;20060;-61
2021/10/16 07:15:52;;;;;;;11.23;6.60;;;;;;;14.21;100.00;96489.00;5025206;28;20053;-62
2021/10/16 07:18:19;;;;;;;10.82;6.78;;;;;;;14.10;100.00;96454.84;5025530;28;20416;-63
2021/10/16 07:20:45;;;;;;;10.68;6.78;;;;;;;14.31;100.00;96488.94;5024090;28;20573;-61
2021/10/16 07:23:33;;;;;;;13.90;8.02;;;;;;;14.36;100.00;96482.94;5024974;28;20536;-62
2021/10/16 07:26:00;;;;;;;23.13;11.90;;;;;;;12.52;100.00;96189.41;5025377;28;20060;-62
2021/10/16 07:28:27;;;;;;;19.67;11.25;;;;;;;13.77;100.00;96430.38;5025153;28;20535;-60
2021/10/16 07:30:53;;;;;;;21.00;12.30;;;;;;;14.43;100.00;96484.91;5025677;28;20057;-61
2021/10/16 07:33:20;;;;;;;34.40;18.13;;;;;;;14.01;100.00;96424.66;5025600;28;20053;-61
2021/10/16 07:35:47;;;;;;;41.53;18.95;;;;;;;14.52;100.00;96465.72;5025649;28;20055;-61
2021/10/16 07:38:14;;;;;;;42.75;17.85;;;;;;;14.67;100.00;96462.41;5025122;28;20591;-66
2021/10/16 07:40:44;;;;;;;40.80;22.02;;;;;;;14.91;100.00;96486.50;5025622;28;20049;-60
2021/10/16 07:43:11;;;;;;;38.80;19.77;;;;;;;14.79;100.00;96447.19;5025258;28;20049;-62
2021/10/16 07:45:38;;;;;;;21.42;12.63;;;;;;;14.84;100.00;96450.28;5025357;28;20049;-60
2021/10/16 07:48:05;;;;;;;35.60;19.10;;;;;;;15.33;100.00;96498.47;5025113;28;20530;-61
2021/10/16 07:50:32;;;;;;;27.65;14.60;;;;;;;15.35;100.00;96493.25;5024832;28;20065;-58
2021/10/16 07:52:58;;;;;;;20.58;11.30;;;;;;;15.31;100.00;96507.25;5024394;28;20501;-63
2021/10/16 07:55:25;;;;;;;13.55;7.75;;;;;;;15.31;100.00;96512.81;5025563;28;20064;-63
2021/10/16 07:57:52;;;;;;;10.85;5.57;;;;;;;15.23;100.00;96522.47;5024533;28;20053;-63
2021/10/16 08:00:19;;;;;;;8.90;4.47;;;;;;;15.01;100.00;96507.13;5024834;28;20136;-62
2021/10/16 08:02:46;;;;;;;9.27;4.30;;;;;;;15.10;100.00;96519.41;5024638;28;20053;-62
2021/10/16 08:05:15;;;;;;;15.13;7.97;;;;;;;15.04;100.00;96520.25;5023287;28;20057;-63
2021/10/16 08:07:42;;;;;;;6.75;3.83;;;;;;;14.91;100.00;96517.19;5024424;28;20123;-63
2021/10/16 08:10:10;;;;;;;4.50;3.00;;;;;;;14.88;100.00;96522.78;5024318;28;20532;-69
2021/10/16 08:12:38;;;;;;;4.28;2.38;;;;;;;14.76;100.00;96535.22;5024558;28;20049;-63
2021/10/16 08:15:09;;;;;;;3.65;2.38;;;;;;;14.45;100.00;96527.88;5025076;28;20057;-66
2021/10/16 08:17:36;;;;;;;7.35;4.22;;;;;;;14.27;100.00;96543.13;5023438;28;20606;-66
2021/10/16 08:20:04;;;;;;;11.40;6.00;;;;;;;14.12;100.00;96522.06;5024618;28;20053;-58
2021/10/16 08:22:31;;;;;;;8.25;5.00;;;;;;;14.14;100.00;96539.16;5024382;28;20060;-59
2021/10/16 08:24:58;;;;;;;4.80;2.80;;;;;;;14.02;100.00;96542.41;5022529;28;20049;-60
2021/10/16 08:27:25;;;;;;;26.98;12.35;;;;;;;13.97;100.00;96545.63;5024034;28;20049;-57
2021/10/16 08:29:52;;;;;;;22.52;12.32;;;;;;;13.83;100.00;96523.41;5023733;28;20586;-62
2021/10/16 08:32:20;;;;;;;16.35;9.63;;;;;;;12.10;100.00;96240.34;5024343;28;20099;-61
2021/10/16 08:34:47;;;;;;;23.77;12.55;;;;;;;14.10;100.00;96549.53;5024355;28;20081;-59
2021/10/16 08:37:14;;;;;;;13.35;7.32;;;;;;;13.55;100.00;96458.31;5023509;28;20045;-61
2021/10/16 08:39:40;;;;;;;7.68;3.85;;;;;;;13.73;100.00;96546.50;5024166;28;20572;-61
2021/10/16 08:42:07;;;;;;;21.08;9.88;;;;;;;13.21;100.00;96432.22;5024273;28;20045;-62
2021/10/16 08:44:35;;;;;;;3.47;2.80;;;;;;;13.35;100.00;96475.88;5023693;28;20049;-61
2021/10/16 08:47:02;;;;;;;2.90;2.60;;;;;;;13.50;100.00;96508.78;5023640;28;20045;-61
2021/10/16 08:49:31;;;;;;;10.25;4.28;;;;;;;13.75;100.00;96555.25;5023568;28;20519;-62
2021/10/16 08:51:58;;;;;;;12.50;5.95;;;;;;;12.93;100.00;96396.09;5023983;28;20061;-60
2021/10/16 08:54:25;;;;;;;24.95;9.13;;;;;;;13.95;100.00;96561.94;5023805;28;20049;-61
2021/10/16 08:56:52;;;;;;;22.40;8.07;;;;;;;14.17;100.00;96561.44;5023950;28;20053;-62
2021/10/16 08:59:18;;;;;;;12.55;7.07;;;;;;;13.96;100.00;96532.91;5023557;28;20530;-61
2021/10/16 09:02:04;;;;;;;19.67;10.57;;;;;;;14.14;100.00;96508.53;5023826;28;20061;-59
2021/10/16 09:04:32;;;;;;;11.40;6.53;;;;;;;14.62;100.00;96559.63;5021989;28;20152;-63
2021/10/16 09:07:00;;;;;;;11.02;5.72;;;;;;;14.48;100.00;96526.28;4995991;28;20041;-62
2021/10/16 09:09:31;;;;;;;7.97;5.45;;;;;;;13.31;100.00;96347.91;5023261;28;20621;-62
2021/10/16 09:11:58;;;;;;;10.95;6.90;;;;;;;14.82;100.00;96557.88;5023393;28;20057;-61
2021/10/16 09:14:31;;;;;;;12.73;7.05;;;;;;;14.00;100.00;96422.28;5023495;28;20053;-61
2021/10/16 09:17:01;;;;;;;9.60;6.25;;;;;;;14.94;100.00;96549.00;5023588;28;20053;-61
2021/10/16 09:19:32;;;;;;;8.25;5.63;;;;;;;15.25;100.00;96573.09;5023462;28;20630;-63
2021/10/16 09:22:21;;;;;;;12.25;6.57;;;;;;;15.36;100.00;96571.00;5023791;28;20057;-63
2021/10/16 09:24:49;;;;;;;9.55;5.97;;;;;;;15.58;100.00;96560.44;5023490;28;20053;-64
2021/10/16 09:27:22;;;;;;;10.77;6.75;;;;;;;15.93;100.00;96560.81;5023629;28;20052;-61
2021/10/16 09:29:51;;;;;;;11.43;5.68;;;;;;;15.49;100.00;96463.19;5022381;28;20053;-60
2021/10/16 09:32:22;;;;;;;11.93;6.88;;;;;;;16.52;100.00;96566.88;5023379;28;20053;-62
2021/10/16 09:34:57;;;;;;;8.82;5.57;;;;;;;16.75;100.00;96572.56;5023110;28;20132;-63
2021/10/16 09:37:23;;;;;;;9.07;5.47;;;;;;;16.86;99.57;96572.41;5023493;28;20058;-61
2021/10/16 09:39:50;;;;;;;7.38;5.28;;;;;;;16.85;95.30;96576.41;5023051;28;20045;-62
2021/10/16 09:42:37;;;;;;;7.53;5.30;;;;;;;16.80;94.68;96585.28;5021848;28;20049;-66
2021/10/16 09:45:06;;;;;;;11.15;5.93;;;;;;;16.92;94.67;96582.69;5022153;28;20095;-62
2021/10/16 09:47:33;;;;;;;10.52;5.53;;;;;;;14.99;87.94;96311.50;5023544;28;20058;-64
2021/10/16 09:50:06;;;;;;;5.43;3.80;;;;;;;16.30;87.71;96515.25;5022983;28;20080;-60
2021/10/16 09:52:41;;;;;;;7.60;4.13;;;;;;;16.78;85.99;96582.09;5023608;28;20456;-62
2021/10/16 09:55:14;;;;;;;16.13;6.78;;;;;;;16.63;85.50;96590.72;5021810;28;20061;-63
2021/10/16 09:57:44;;;;;;;13.05;4.78;;;;;;;15.94;89.44;96528.91;5022995;28;20085;-61
2021/10/16 10:00:12;;;;;;;8.80;4.43;;;;;;;16.30;83.65;96588.72;5021707;28;20061;-61
2021/10/16 10:02:39;;;;;;;3.95;3.22;;;;;;;15.81;85.34;96614.44;5023216;28;20045;-64
2021/10/16 10:05:08;;;;;;;4.80;2.80;;;;;;;15.90;84.95;96600.00;5023266;28;20050;-62
2021/10/16 10:07:36;;;;;;;6.50;2.70;;;;;;;15.18;87.26;96559.19;5023427;28;20059;-60
2021/10/16 10:10:05;;;;;;;4.47;3.00;;;;;;;14.15;83.85;96398.69;5022359;28;20057;-60
2021/10/16 10:12:35;;;;;;;13.90;5.47;;;;;;;15.81;86.09;96597.69;5021898;28;20061;-62
2021/10/16 10:15:02;;;;;;;5.00;3.20;;;;;;;16.04;81.57;96609.00;5022962;28;20059;-64
2021/10/16 10:17:31;;;;;;;2.83;1.65;;;;;;;15.94;79.97;96534.50;5021900;28;20050;-69
2021/10/16 10:20:03;;;;;;;4.45;2.90;;;;;;;16.43;79.06;96603.75;5001814;28;20141;-71
2021/10/16 10:22:34;;;;;;;4.47;3.13;;;;;;;16.71;77.84;96596.22;5001203;28;20512;-62
2021/10/16 10:25:12;;;;;;;5.38;3.22;;;;;;;16.22;78.77;96528.53;5001634;28;20057;-61
2021/10/16 10:27:44;;;;;;;4.22;3.03;;;;;;;16.96;76.67;96596.63;5001992;28;20061;-61
2021/10/16 10:30:36;;;;;;;6.45;2.97;;;;;;;17.06;78.32;96592.88;5002839;28;20092;-63
2021/10/16 10:33:29;;;;;;;4.65;2.90;;;;;;;17.03;75.79;96560.13;5001427;28;20512;-59
2021/10/16 10:36:05;;;;;;;8.55;4.55;;;;;;;17.61;76.69;96590.38;5002530;28;20387;-59
2021/10/16 10:38:42;;;;;;;5.60;3.40;;;;;;;17.61;74.87;96574.38;5003608;28;20057;-61
2021/10/16 10:41:23;;;;;;;3.63;2.88;;;;;;;17.97;76.52;96591.31;5003421;28;20156;-59
2021/10/16 10:43:52;;;;;;;4.07;2.30;;;;;;;17.73;74.74;96593.38;5006440;28;20111;-59
2021/10/16 10:46:29;;;;;;;9.18;5.00;;;;;;;17.73;75.86;96598.19;5006289;28;20053;-59
2021/10/16 10:49:14;;;;;;;9.70;4.50;;;;;;;16.97;75.94;96542.25;5005045;28;20058;-59
2021/10/16 10:51:41;;;;;;;5.38;3.58;;;;;;;16.37;76.53;96459.25;5006159;28;20149;-65
2021/10/16 10:54:20;;;;;;;5.93;3.70;;;;;;;17.18;76.95;96600.69;5006216;28;20069;-64
2021/10/16 10:56:55;;;;;;;7.28;4.15;;;;;;;17.22;77.23;96602.22;5005938;28;20064;-64
2021/10/16 10:59:22;;;;;;;4.88;2.67;;;;;;;17.28;76.91;96594.91;5005023;28;20527;-60
2021/10/16 11:02:04;;;;;;;4.35;3.83;;;;;;;16.43;77.03;96489.13;5006279;28;20413;-62
2021/10/16 11:04:47;;;;;;;5.45;3.63;;;;;;;17.12;77.32;96591.19;5006117;28;20145;-64
2021/10/16 11:07:38;;;;;;;6.75;5.80;;;;;;;17.21;75.32;96597.84;5006268;28;20453;-64
2021/10/16 11:10:10;;;;;;;2.70;2.50;;;;;;;17.10;78.82;96591.63;5015030;28;20080;-60
2021/10/16 11:12:39;;;;;;;4.93;3.65;;;;;;;16.89;77.53;96577.94;5025835;28;20049;-64
2021/10/16 11:15:09;;;;;;;4.25;3.10;;;;;;;16.90;78.21;96568.34;5024380;28;20072;-64
2021/10/16 11:17:45;;;;;;;3.22;2.75;;;;;;;17.21;75.30;96589.44;5024392;28;20060;-63
2021/10/16 11:20:16;;;;;;;6.50;3.58;;;;;;;17.30;77.86;96597.28;5024682;28;20049;-64
2021/10/16 11:22:43;;;;;;;5.80;3.97;;;;;;;17.46;75.61;96600.25;5026100;28;20111;-62
2021/10/16 11:25:23;;;;;;;2.90;2.65;;;;;;;17.21;75.10;96583.03;5025705;28;20057;-58